createdAt,value
2022-08-26T00:00:32.512Z,0.00
2022-08-26T00:01:32.259Z,0.00
2022-08-26T00:02:32.307Z,0.00
2022-08-26T00:03:32.229Z,0.00
2022-08-26T00:04:32.235Z,0.00
2022-08-26T00:05:32.220Z,0.00
2022-08-26T00:06:32.216Z,0.00
2022-08-26T00:07:32.201Z,0.00
2022-08-26T00:08:32.212Z,0.00
2022-08-26T00:09:32.163Z,0.00
2022-08-26T00:10:32.153Z,0.00
2022-08-26T00:11:32.943Z,0.00
2022-08-26T00:12:37.498Z,0.00
2022-08-26T00:13:33.113Z,0.00
2022-08-26T00:14:32.085Z,0.00
2022-08-26T00:15:32.081Z,0.00
2022-08-26T00:16:32.137Z,0.00
2022-08-26T00:17:32.097Z,0.00
2022-08-26T00:18:38.700Z,0.00
2022-08-26T00:19:33.028Z,0.00
2022-08-26T00:20:32.954Z,0.00
2022-08-26T00:21:32.014Z,0.00
2022-08-26T00:22:31.987Z,0.00
2022-08-26T00:23:31.969Z,0.00
2022-08-26T00:24:31.957Z,0.00
2022-08-26T00:25:31.948Z,0.00
2022-08-26T00:26:31.929Z,0.00
2022-08-26T00:27:31.919Z,0.00
2022-08-26T00:28:31.895Z,0.00
2022-08-26T00:29:31.983Z,0.00
2022-08-26T00:30:31.893Z,0.00
2022-08-26T00:31:31.905Z,0.00
2022-08-26T00:32:31.852Z,0.00
2022-08-26T00:33:31.835Z,0.00
2022-08-26T00:34:31.821Z,0.00
2022-08-26T00:35:31.853Z,0.00
2022-08-26T00:36:31.804Z,0.00
2022-08-26T00:37:31.796Z,0.00
2022-08-26T00:38:31.772Z,0.00
2022-08-26T00:39:31.753Z,0.00
2022-08-26T00:40:31.837Z,0.00
2022-08-26T00:41:31.734Z,0.00
2022-08-26T00:42:31.724Z,0.00
2022-08-26T00:43:31.714Z,0.00
2022-08-26T00:44:32.687Z,0.00
2022-08-26T00:45:31.731Z,0.00
2022-08-26T00:46:31.688Z,0.00
2022-08-26T00:47:31.669Z,0.00
2022-08-26T00:48:31.814Z,0.00
2022-08-26T00:49:31.627Z,0.00
2022-08-26T00:50:31.610Z,0.00
2022-08-26T00:51:31.603Z,0.00
2022-08-26T00:52:31.589Z,0.00
2022-08-26T00:53:31.569Z,0.00
2022-08-26T00:54:31.599Z,0.00
2022-08-26T00:55:34.665Z,0.00
2022-08-26T00:56:32.540Z,0.00
2022-08-26T00:57:31.533Z,0.00
2022-08-26T00:58:31.500Z,0.00
2022-08-26T00:59:32.710Z,0.00
2022-08-26T01:00:31.481Z,0.00
2022-08-26T01:01:31.568Z,0.00
2022-08-26T01:02:31.494Z,0.00
2022-08-26T01:03:31.441Z,0.00
2022-08-26T01:04:31.448Z,0.00
2022-08-26T01:05:31.412Z,0.00
2022-08-26T01:06:31.421Z,0.00
2022-08-26T01:07:31.470Z,0.00
2022-08-26T01:08:31.369Z,0.00
2022-08-26T01:09:32.314Z,0.00
2022-08-26T01:10:31.379Z,0.00
2022-08-26T01:11:31.337Z,0.00
2022-08-26T01:12:31.309Z,0.00
2022-08-26T01:13:31.580Z,0.00
2022-08-26T01:14:31.296Z,0.00
2022-08-26T01:15:32.816Z,0.00
2022-08-26T01:16:31.348Z,0.00
2022-08-26T01:17:31.285Z,0.00
2022-08-26T01:18:31.298Z,0.00
2022-08-26T01:19:31.229Z,0.00
2022-08-26T01:20:31.223Z,0.00
2022-08-26T01:21:31.209Z,0.00
2022-08-26T01:22:31.190Z,0.00
2022-08-26T01:23:31.171Z,0.00
2022-08-26T01:24:31.185Z,0.00
2022-08-26T01:25:32.102Z,0.00
2022-08-26T01:26:31.151Z,0.00
2022-08-26T01:27:32.396Z,0.00
2022-08-26T01:28:31.102Z,0.00
2022-08-26T01:29:31.106Z,0.00
2022-08-26T01:30:31.077Z,0.00
2022-08-26T01:31:31.117Z,0.00
2022-08-26T01:32:31.048Z,0.00
2022-08-26T01:33:31.042Z,0.00
2022-08-26T01:34:32.025Z,0.00
2022-08-26T01:35:31.015Z,0.00
2022-08-26T01:36:31.001Z,0.00
2022-08-26T01:37:30.994Z,0.00
2022-08-26T01:38:30.984Z,0.00
2022-08-26T01:39:30.965Z,0.00
2022-08-26T01:40:31.009Z,0.00
2022-08-26T01:41:30.936Z,0.00
2022-08-26T01:42:30.916Z,0.00
2022-08-26T01:43:30.896Z,0.00
2022-08-26T01:44:31.837Z,0.00
2022-08-26T01:45:30.935Z,0.00
2022-08-26T01:46:30.865Z,0.00
2022-08-26T01:47:30.851Z,0.00
2022-08-26T01:48:30.830Z,0.00
2022-08-26T01:49:31.926Z,0.00
2022-08-26T01:50:30.808Z,0.00
2022-08-26T01:51:31.590Z,0.00
2022-08-26T01:52:30.777Z,0.00
2022-08-26T01:53:30.829Z,0.00
2022-08-26T01:54:30.750Z,0.00
2022-08-26T01:55:32.989Z,0.00
2022-08-26T01:56:33.408Z,0.00
2022-08-26T01:57:31.713Z,0.00
2022-08-26T01:58:30.711Z,0.00
2022-08-26T01:59:30.699Z,0.00
2022-08-26T02:00:30.688Z,0.00
2022-08-26T02:01:30.673Z,0.00
2022-08-26T02:02:30.643Z,0.00
2022-08-26T02:03:30.657Z,0.00
2022-08-26T02:04:31.047Z,0.00
2022-08-26T02:05:30.625Z,0.00
2022-08-26T02:06:30.595Z,0.00
2022-08-26T02:07:30.575Z,0.00
2022-08-26T02:08:30.583Z,0.00
2022-08-26T02:09:30.814Z,0.00
2022-08-26T02:10:30.554Z,0.00
2022-08-26T02:11:30.538Z,0.00
2022-08-26T02:12:30.526Z,0.00
2022-08-26T02:13:30.522Z,0.00
2022-08-26T02:14:30.514Z,0.00
2022-08-26T02:15:30.479Z,0.00
2022-08-26T02:16:30.494Z,0.00
2022-08-26T02:17:30.461Z,0.00
2022-08-26T02:18:30.444Z,0.00
2022-08-26T02:19:30.430Z,0.00
2022-08-26T02:20:30.458Z,0.00
2022-08-26T02:21:30.400Z,0.00
2022-08-26T02:22:30.393Z,0.00
2022-08-26T02:23:30.372Z,0.00
2022-08-26T02:24:30.362Z,0.00
2022-08-26T02:25:30.353Z,0.00
2022-08-26T02:26:30.358Z,0.00
2022-08-26T02:27:32.307Z,0.00
2022-08-26T02:28:30.323Z,0.00
2022-08-26T02:29:30.294Z,0.00
2022-08-26T02:30:30.302Z,0.00
2022-08-26T02:31:30.311Z,0.00
2022-08-26T02:32:30.249Z,0.00
2022-08-26T02:33:30.250Z,0.00
2022-08-26T02:34:31.205Z,0.00
2022-08-26T02:35:31.175Z,0.00
2022-08-26T02:36:31.138Z,0.00
2022-08-26T02:37:30.196Z,0.00
2022-08-26T02:38:30.169Z,0.00
2022-08-26T02:39:30.157Z,0.00
2022-08-26T02:40:31.144Z,0.00
2022-08-26T02:41:30.128Z,0.00
2022-08-26T02:42:30.120Z,0.00
2022-08-26T02:43:32.705Z,0.00
2022-08-26T02:44:30.089Z,0.00
2022-08-26T02:45:30.117Z,0.00
2022-08-26T02:46:30.329Z,0.00
2022-08-26T02:47:30.051Z,0.00
2022-08-26T02:48:30.992Z,0.00
2022-08-26T02:49:30.048Z,0.00
2022-08-26T02:50:30.011Z,0.00
2022-08-26T02:51:30.012Z,0.00
2022-08-26T02:52:29.981Z,0.00
2022-08-26T02:53:31.681Z,0.00
2022-08-26T02:54:29.971Z,0.00
2022-08-26T02:55:30.224Z,0.00
2022-08-26T02:56:29.932Z,0.00
2022-08-26T02:57:30.873Z,0.00
2022-08-26T02:58:29.900Z,0.00
2022-08-26T02:59:30.863Z,0.00
2022-08-26T03:00:29.934Z,0.00
2022-08-26T03:01:29.963Z,0.00
2022-08-26T03:02:29.852Z,0.00
2022-08-26T03:03:29.846Z,0.00
2022-08-26T03:04:30.814Z,0.00
2022-08-26T03:05:29.826Z,0.00
2022-08-26T03:06:29.790Z,0.00
2022-08-26T03:07:29.788Z,0.00
2022-08-26T03:08:29.768Z,0.00
2022-08-26T03:09:29.768Z,0.00
2022-08-26T03:10:29.738Z,0.00
2022-08-26T03:11:33.143Z,0.00
2022-08-26T03:12:30.664Z,0.00
2022-08-26T03:13:30.663Z,0.00
2022-08-26T03:14:29.698Z,0.00
2022-08-26T03:15:29.683Z,0.00
2022-08-26T03:16:32.306Z,0.00
2022-08-26T03:17:29.891Z,0.00
2022-08-26T03:18:29.631Z,0.00
2022-08-26T03:19:30.594Z,0.00
2022-08-26T03:20:29.622Z,0.00
2022-08-26T03:21:29.607Z,0.00
2022-08-26T03:22:29.598Z,0.00
2022-08-26T03:23:30.528Z,0.00
2022-08-26T03:24:29.575Z,0.00
2022-08-26T03:25:29.569Z,0.00
2022-08-26T03:26:29.562Z,0.00
2022-08-26T03:27:29.522Z,0.00
2022-08-26T03:28:29.505Z,0.00
2022-08-26T03:29:30.707Z,0.00
2022-08-26T03:30:29.476Z,0.00
2022-08-26T03:31:29.599Z,0.00
2022-08-26T03:32:29.445Z,0.00
2022-08-26T03:33:29.437Z,0.00
2022-08-26T03:34:29.438Z,2.00
2022-08-26T03:35:29.410Z,2.00
2022-08-26T03:36:29.389Z,0.00
2022-08-26T03:37:29.378Z,0.00
2022-08-26T03:38:29.378Z,0.00
2022-08-26T03:39:31.413Z,0.00
2022-08-26T03:40:29.381Z,0.00
2022-08-26T03:41:29.332Z,0.00
2022-08-26T03:42:29.321Z,2.00
2022-08-26T03:43:29.303Z,1.00
2022-08-26T03:44:29.325Z,1.00
2022-08-26T03:45:29.290Z,2.00
2022-08-26T03:46:29.328Z,13.00
2022-08-26T03:47:29.252Z,5.00
2022-08-26T03:48:29.232Z,8.00
2022-08-26T03:49:29.249Z,4.00
2022-08-26T03:50:29.207Z,8.00
2022-08-26T03:51:29.201Z,11.00
2022-08-26T03:52:29.183Z,9.00
2022-08-26T03:53:29.174Z,12.00
2022-08-26T03:54:29.174Z,14.00
2022-08-26T03:55:29.144Z,21.00
2022-08-26T03:56:29.125Z,26.00
2022-08-26T03:57:29.116Z,29.00
2022-08-26T03:58:29.101Z,30.00
2022-08-26T03:59:29.103Z,41.00
2022-08-26T04:00:29.084Z,57.00
2022-08-26T04:01:29.167Z,50.00
2022-08-26T04:02:29.085Z,62.00
2022-08-26T04:03:29.089Z,77.00
2022-08-26T04:04:29.038Z,77.00
2022-08-26T04:05:29.009Z,97.00
2022-08-26T04:06:28.990Z,115.00
2022-08-26T04:07:28.989Z,123.00
2022-08-26T04:08:28.969Z,139.00
2022-08-26T04:09:28.981Z,147.00
2022-08-26T04:10:29.595Z,178.00
2022-08-26T04:11:28.943Z,203.00
2022-08-26T04:12:28.944Z,205.00
2022-08-26T04:13:28.917Z,238.00
2022-08-26T04:14:28.900Z,263.00
2022-08-26T04:15:29.833Z,283.00
2022-08-26T04:16:28.922Z,306.00
2022-08-26T04:17:28.852Z,332.00
2022-08-26T04:18:33.018Z,352.00
2022-08-26T04:19:29.834Z,375.00
2022-08-26T04:20:28.813Z,402.00
2022-08-26T04:21:28.795Z,429.00
2022-08-26T04:22:29.386Z,442.00
2022-08-26T04:23:28.795Z,480.00
2022-08-26T04:24:28.763Z,507.00
2022-08-26T04:25:28.745Z,534.00
2022-08-26T04:26:28.725Z,565.00
2022-08-26T04:27:28.726Z,589.00
2022-08-26T04:28:28.696Z,631.00
2022-08-26T04:29:28.697Z,649.00
2022-08-26T04:30:28.681Z,686.00
2022-08-26T04:31:28.712Z,721.00
2022-08-26T04:32:28.650Z,745.00
2022-08-26T04:33:32.320Z,776.00
2022-08-26T04:34:28.965Z,800.00
2022-08-26T04:35:28.609Z,849.00
2022-08-26T04:36:28.599Z,869.00
2022-08-26T04:37:28.580Z,893.00
2022-08-26T04:38:28.583Z,921.00
2022-08-26T04:39:28.550Z,957.00
2022-08-26T04:40:28.585Z,997.00
2022-08-26T04:41:28.631Z,1030.00
2022-08-26T04:42:28.522Z,1076.00
2022-08-26T04:43:28.527Z,1122.00
2022-08-26T04:44:28.501Z,1163.00
2022-08-26T04:45:28.474Z,1201.00
2022-08-26T04:46:28.500Z,1222.00
2022-08-26T04:47:32.240Z,1282.00
2022-08-26T04:48:28.564Z,1319.00
2022-08-26T04:49:28.414Z,1364.00
2022-08-26T04:50:29.435Z,1411.00
2022-08-26T04:51:28.392Z,1462.00
2022-08-26T04:52:28.385Z,1513.00
2022-08-26T04:53:28.376Z,1555.00
2022-08-26T04:54:28.367Z,1610.00
2022-08-26T04:55:38.302Z,1649.00
2022-08-26T04:56:29.338Z,1706.00
2022-08-26T04:57:28.321Z,1751.00
2022-08-26T04:58:28.319Z,1810.00
2022-08-26T04:59:28.298Z,1851.00
2022-08-26T05:00:28.285Z,1899.00
2022-08-26T05:01:28.325Z,1945.00
2022-08-26T05:02:28.280Z,1988.00
2022-08-26T05:03:30.543Z,2037.00
2022-08-26T05:04:28.255Z,2073.00
2022-08-26T05:05:28.210Z,2127.00
2022-08-26T05:06:28.201Z,2164.00
2022-08-26T05:07:28.181Z,2207.00
2022-08-26T05:08:28.181Z,2253.00
2022-08-26T05:09:28.152Z,2309.00
2022-08-26T05:10:28.153Z,2355.00
2022-08-26T05:11:28.129Z,2400.00
2022-08-26T05:12:28.122Z,2453.00
2022-08-26T05:13:28.123Z,2493.00
2022-08-26T05:14:28.105Z,2539.00
2022-08-26T05:15:28.074Z,2568.00
2022-08-26T05:16:28.099Z,2624.00
2022-08-26T05:17:28.056Z,2652.00
2022-08-26T05:18:28.056Z,2703.00
2022-08-26T05:19:28.072Z,2754.00
2022-08-26T05:20:28.023Z,2793.00
2022-08-26T05:21:27.996Z,2833.00
2022-08-26T05:22:27.986Z,2867.00
2022-08-26T05:23:27.976Z,2921.00
2022-08-26T05:24:28.047Z,2964.00
2022-08-26T05:25:27.947Z,3008.00
2022-08-26T05:26:27.937Z,3038.00
2022-08-26T05:27:27.916Z,3085.00
2022-08-26T05:28:27.919Z,3128.00
2022-08-26T05:29:27.890Z,3175.00
2022-08-26T05:30:27.887Z,3236.00
2022-08-26T05:31:27.914Z,3301.00
2022-08-26T05:32:27.856Z,3360.00
2022-08-26T05:33:27.849Z,3400.00
2022-08-26T05:34:30.346Z,3431.00
2022-08-26T05:35:27.812Z,3475.00
2022-08-26T05:36:27.807Z,3523.00
2022-08-26T05:37:27.782Z,3562.00
2022-08-26T05:38:30.160Z,3620.00
2022-08-26T05:39:27.762Z,3673.00
2022-08-26T05:40:27.819Z,3729.00
2022-08-26T05:41:27.730Z,3782.00
2022-08-26T05:42:28.722Z,3820.00
2022-08-26T05:43:27.733Z,3827.00
2022-08-26T05:44:27.704Z,3839.00
2022-08-26T05:45:27.675Z,3858.00
2022-08-26T05:46:27.711Z,3900.00
2022-08-26T05:47:28.692Z,3933.00
2022-08-26T05:48:27.657Z,3955.00
2022-08-26T05:49:27.626Z,3973.00
2022-08-26T05:50:27.627Z,4016.00
2022-08-26T05:51:27.656Z,4061.00
2022-08-26T05:52:27.607Z,4078.00
2022-08-26T05:53:27.578Z,4116.00
2022-08-26T05:54:27.568Z,4119.00
2022-08-26T05:55:27.548Z,4162.00
2022-08-26T05:56:27.724Z,4209.00
2022-08-26T05:57:27.514Z,4257.00
2022-08-26T05:58:27.522Z,4282.00
2022-08-26T05:59:27.512Z,4339.00
2022-08-26T06:00:27.547Z,4367.00
2022-08-26T06:01:27.556Z,4395.00
2022-08-26T06:02:27.484Z,4405.00
2022-08-26T06:03:27.448Z,4427.00
2022-08-26T06:04:29.597Z,4441.00
2022-08-26T06:05:27.412Z,4469.00
2022-08-26T06:06:28.534Z,4509.00
2022-08-26T06:07:27.394Z,4539.00
2022-08-26T06:08:27.383Z,4567.00
2022-08-26T06:09:27.361Z,4607.00
2022-08-26T06:10:34.431Z,4653.00
2022-08-26T06:11:28.332Z,4687.00
2022-08-26T06:12:27.356Z,4720.00
2022-08-26T06:13:27.322Z,4768.00
2022-08-26T06:14:27.297Z,4806.00
2022-08-26T06:15:27.307Z,4853.00
2022-08-26T06:16:27.296Z,4918.00
2022-08-26T06:17:27.256Z,4985.00
2022-08-26T06:18:27.248Z,5098.00
2022-08-26T06:19:32.723Z,5151.00
2022-08-26T06:20:28.239Z,5198.00
2022-08-26T06:21:27.198Z,5239.00
2022-08-26T06:22:27.203Z,5281.00
2022-08-26T06:23:27.180Z,5329.00
2022-08-26T06:24:27.519Z,5371.00
2022-08-26T06:25:27.151Z,5411.00
2022-08-26T06:26:27.140Z,5452.00
2022-08-26T06:27:30.654Z,5492.00
2022-08-26T06:28:28.141Z,5516.00
2022-08-26T06:29:27.092Z,5535.00
2022-08-26T06:30:27.082Z,5566.00
2022-08-26T06:31:27.114Z,5607.00
2022-08-26T06:32:28.154Z,5624.00
2022-08-26T06:33:27.048Z,5615.00
2022-08-26T06:34:30.579Z,5607.00
2022-08-26T06:35:27.973Z,5602.00
2022-08-26T06:36:27.005Z,5585.00
2022-08-26T06:37:26.999Z,5581.00
2022-08-26T06:38:27.016Z,5553.00
2022-08-26T06:39:26.996Z,5524.00
2022-08-26T06:40:27.100Z,5520.00
2022-08-26T06:41:26.926Z,5527.00
2022-08-26T06:42:26.937Z,5537.00
2022-08-26T06:43:26.938Z,5545.00
2022-08-26T06:44:26.962Z,5560.00
2022-08-26T06:45:26.874Z,5578.00
2022-08-26T06:46:26.916Z,5601.00
2022-08-26T06:47:26.903Z,5625.00
2022-08-26T06:48:26.852Z,5657.00
2022-08-26T06:49:27.782Z,5690.00
2022-08-26T06:50:26.830Z,5723.00
2022-08-26T06:51:26.840Z,5746.00
2022-08-26T06:52:26.790Z,5755.00
2022-08-26T06:53:26.781Z,5770.00
2022-08-26T06:54:26.823Z,5801.00
2022-08-26T06:55:26.969Z,5823.00
2022-08-26T06:56:27.702Z,5858.00
2022-08-26T06:57:26.732Z,5877.00
2022-08-26T06:58:26.733Z,5863.00
2022-08-26T06:59:26.713Z,5885.00
2022-08-26T07:00:26.704Z,5868.00
2022-08-26T07:01:26.716Z,5831.00
2022-08-26T07:02:28.614Z,5778.00
2022-08-26T07:03:26.652Z,5729.00
2022-08-26T07:04:27.906Z,5700.00
2022-08-26T07:05:26.616Z,5676.00
2022-08-26T07:06:26.606Z,5678.00
2022-08-26T07:07:26.631Z,5647.00
2022-08-26T07:08:26.745Z,5656.00
2022-08-26T07:09:26.587Z,5647.00
2022-08-26T07:10:26.558Z,5668.00
2022-08-26T07:11:26.536Z,5699.00
2022-08-26T07:12:26.525Z,5727.00
2022-08-26T07:13:30.751Z,5749.00
2022-08-26T07:14:26.523Z,5774.00
2022-08-26T07:15:31.104Z,5793.00
2022-08-26T07:16:27.522Z,5768.00
2022-08-26T07:17:26.490Z,5695.00
2022-08-26T07:18:26.462Z,5615.00
2022-08-26T07:19:29.882Z,5560.00
2022-08-26T07:20:26.423Z,5513.00
2022-08-26T07:21:26.403Z,5484.00
2022-08-26T07:22:26.414Z,5438.00
2022-08-26T07:23:26.413Z,5380.00
2022-08-26T07:24:29.059Z,5348.00
2022-08-26T07:25:26.605Z,5342.00
2022-08-26T07:26:26.345Z,5359.00
2022-08-26T07:27:26.349Z,5379.00
2022-08-26T07:28:26.347Z,5413.00
2022-08-26T07:29:26.295Z,5398.00
2022-08-26T07:30:26.287Z,5400.00
2022-08-26T07:31:26.331Z,5387.00
2022-08-26T07:32:26.266Z,5396.00
2022-08-26T07:33:26.254Z,5415.00
2022-08-26T07:34:26.300Z,5455.00
2022-08-26T07:35:26.231Z,5508.00
2022-08-26T07:36:26.209Z,5536.00
2022-08-26T07:37:26.202Z,5548.00
2022-08-26T07:38:26.201Z,5551.00
2022-08-26T07:39:26.161Z,5551.00
2022-08-26T07:40:26.276Z,5492.00
2022-08-26T07:41:26.177Z,5476.00
2022-08-26T07:42:26.131Z,5547.00
2022-08-26T07:43:26.123Z,5580.00
2022-08-26T07:44:26.102Z,5567.00
2022-08-26T07:45:26.082Z,5529.00
2022-08-26T07:46:27.553Z,5450.00
2022-08-26T07:47:26.413Z,5395.00
2022-08-26T07:48:26.072Z,5342.00
2022-08-26T07:49:26.098Z,5262.00
2022-08-26T07:50:49.520Z,5189.00
2022-08-26T07:51:27.067Z,5157.00
2022-08-26T07:52:27.227Z,5148.00
2022-08-26T07:53:25.996Z,5177.00
2022-08-26T07:54:27.107Z,5250.00
2022-08-26T07:55:25.959Z,5242.00
2022-08-26T07:56:26.903Z,5222.00
2022-08-26T07:57:25.929Z,5082.00
2022-08-26T07:58:25.955Z,4997.00
2022-08-26T07:59:25.900Z,4881.00
2022-08-26T08:00:25.899Z,4758.00
2022-08-26T08:01:25.931Z,4631.00
2022-08-26T08:02:25.861Z,4560.00
2022-08-26T08:03:25.860Z,4564.00
2022-08-26T08:04:26.705Z,4564.00
2022-08-26T08:05:27.278Z,4609.00
2022-08-26T08:06:27.171Z,4655.00
2022-08-26T08:07:44.425Z,4685.00
2022-08-26T08:08:29.209Z,4688.00
2022-08-26T08:09:25.785Z,4726.00
2022-08-26T08:10:25.783Z,4752.00
2022-08-26T08:11:25.781Z,4775.00
2022-08-26T08:12:25.755Z,4812.00
2022-08-26T08:13:25.723Z,4881.00
2022-08-26T08:14:25.725Z,4941.00
2022-08-26T08:15:25.726Z,5006.00
2022-08-26T08:16:26.039Z,5036.00
2022-08-26T08:17:25.672Z,5071.00
2022-08-26T08:18:25.674Z,5088.00
2022-08-26T08:19:28.376Z,5131.00
2022-08-26T08:20:26.638Z,5144.00
2022-08-26T08:21:25.607Z,5143.00
2022-08-26T08:22:25.598Z,5127.00
2022-08-26T08:23:25.625Z,5133.00
2022-08-26T08:24:25.579Z,5143.00
2022-08-26T08:25:25.575Z,5161.00
2022-08-26T08:26:25.552Z,5193.00
2022-08-26T08:27:25.529Z,5178.00
2022-08-26T08:28:25.540Z,5196.00
2022-08-26T08:29:25.511Z,5196.00
2022-08-26T08:30:25.491Z,5156.00
2022-08-26T08:31:54.548Z,5100.00
2022-08-26T08:32:26.502Z,5019.00
2022-08-26T08:33:25.452Z,4953.00
2022-08-26T08:34:25.737Z,4888.00
2022-08-26T08:35:25.448Z,4800.00
2022-08-26T08:36:25.419Z,4717.00
2022-08-26T08:37:26.434Z,4628.00
2022-08-26T08:38:25.394Z,4482.00
2022-08-26T08:39:25.375Z,4337.00
2022-08-26T08:40:25.389Z,4241.00
2022-08-26T08:41:25.370Z,4144.00
2022-08-26T08:42:25.358Z,4071.00
2022-08-26T08:43:25.316Z,4046.00
2022-08-26T08:45:25.297Z,3951.00
2022-08-26T08:46:25.306Z,3896.00
2022-08-26T08:47:25.279Z,3873.00
2022-08-26T08:48:27.686Z,3821.00
2022-08-26T08:49:25.547Z,3776.00
2022-08-26T08:50:25.230Z,3716.00
2022-08-26T08:51:25.220Z,3654.00
2022-08-26T08:52:25.210Z,3624.00
2022-08-26T08:53:25.202Z,3553.00
2022-08-26T08:54:25.192Z,3485.00
2022-08-26T08:55:25.172Z,3418.00
2022-08-26T08:56:25.173Z,3369.00
2022-08-26T08:57:25.162Z,3318.00
2022-08-26T08:58:25.153Z,3250.00
2022-08-26T08:59:25.114Z,3180.00
2022-08-26T09:00:30.466Z,3215.00
2022-08-26T09:01:26.125Z,4509.00
2022-08-26T09:02:25.131Z,4191.00
2022-08-26T09:03:25.106Z,4455.00
2022-08-26T09:04:25.053Z,4358.00
2022-08-26T09:05:25.178Z,4064.00
2022-08-26T09:06:25.966Z,3193.00
2022-08-26T09:07:25.024Z,2941.00
2022-08-26T09:08:27.517Z,4007.00
2022-08-26T09:09:24.988Z,4502.00
2022-08-26T09:10:24.990Z,3447.00
2022-08-26T09:11:24.968Z,3719.00
2022-08-26T09:12:29.416Z,3221.00
2022-08-26T09:13:27.203Z,3686.00
2022-08-26T09:14:24.930Z,3640.00
2022-08-26T09:15:26.387Z,3959.00
2022-08-26T09:16:24.960Z,4057.00
2022-08-26T09:17:24.891Z,4125.00
2022-08-26T09:18:24.871Z,4113.00
2022-08-26T09:19:24.856Z,3346.00
2022-08-26T09:20:24.864Z,2924.00
2022-08-26T09:21:25.139Z,3036.00
2022-08-26T09:22:24.834Z,3094.00
2022-08-26T09:23:25.191Z,3102.00
2022-08-26T09:24:28.840Z,3011.00
2022-08-26T09:25:24.784Z,2942.00
2022-08-26T09:26:27.162Z,3126.00
2022-08-26T09:27:24.747Z,3129.00
2022-08-26T09:28:24.734Z,2868.00
2022-08-26T09:29:24.743Z,2823.00
2022-08-26T09:30:24.715Z,3345.00
2022-08-26T09:31:24.774Z,3019.00
2022-08-26T09:32:24.816Z,3047.00
2022-08-26T09:33:24.679Z,3237.00
2022-08-26T09:34:24.655Z,3242.00
2022-08-26T09:35:24.649Z,3230.00
2022-08-26T09:36:24.750Z,3219.00
2022-08-26T09:37:24.634Z,3202.00
2022-08-26T09:38:24.603Z,3177.00
2022-08-26T09:39:24.594Z,3151.00
2022-08-26T09:40:24.646Z,3127.00
2022-08-26T09:41:24.562Z,3113.00
2022-08-26T09:42:24.572Z,3106.00
2022-08-26T09:43:24.556Z,3112.00
2022-08-26T09:44:25.514Z,3130.00
2022-08-26T09:45:25.465Z,3150.00
2022-08-26T09:46:24.555Z,3153.00
2022-08-26T09:47:24.516Z,3144.00
2022-08-26T09:48:24.511Z,3155.00
2022-08-26T09:49:24.456Z,3182.00
2022-08-26T09:50:28.995Z,3162.00
2022-08-26T09:51:24.447Z,3169.00
2022-08-26T09:52:24.691Z,3159.00
2022-08-26T09:53:28.739Z,3141.00
2022-08-26T09:54:25.386Z,3167.00
2022-08-26T09:55:25.379Z,3222.00
2022-08-26T09:56:24.360Z,3256.00
2022-08-26T09:57:24.360Z,3188.00
2022-08-26T09:58:24.329Z,3197.00
2022-08-26T09:59:24.320Z,3233.00
2022-08-26T10:00:24.301Z,3256.00
2022-08-26T10:01:24.356Z,3343.00
2022-08-26T10:02:24.292Z,3417.00
2022-08-26T10:03:25.223Z,3510.00
2022-08-26T10:04:24.351Z,3538.00
2022-08-26T10:05:24.244Z,3648.00
2022-08-26T10:06:24.233Z,3792.00
2022-08-26T10:07:24.234Z,6593.00
2022-08-26T10:08:24.204Z,6764.00
2022-08-26T10:09:24.196Z,6824.00
2022-08-26T10:10:24.185Z,6901.00
2022-08-26T10:11:24.166Z,7037.00
2022-08-26T10:12:24.175Z,7162.00
2022-08-26T10:13:24.147Z,4337.00
2022-08-26T10:14:24.149Z,4422.00
2022-08-26T10:15:25.068Z,4491.00
2022-08-26T10:16:24.130Z,4496.00
2022-08-26T10:17:24.109Z,4622.00
2022-08-26T10:18:24.070Z,4747.00
2022-08-26T10:19:24.093Z,4904.00
2022-08-26T10:20:25.082Z,5183.00
2022-08-26T10:21:24.052Z,5200.00
2022-08-26T10:22:24.036Z,5520.00
2022-08-26T10:23:24.012Z,5656.00
2022-08-26T10:24:24.027Z,5529.00
2022-08-26T10:25:24.002Z,5521.00
2022-08-26T10:26:23.967Z,5794.00
2022-08-26T10:27:23.974Z,9197.00
2022-08-26T10:28:23.944Z,9339.00
2022-08-26T10:29:23.965Z,9602.00
2022-08-26T10:30:23.939Z,9558.00
2022-08-26T10:31:27.534Z,8196.00
2022-08-26T10:32:23.991Z,9768.00
2022-08-26T10:33:23.877Z,9745.00
2022-08-26T10:34:23.856Z,9750.00
2022-08-26T10:35:23.897Z,9686.00
2022-08-26T10:36:23.847Z,6507.00
2022-08-26T10:37:23.870Z,6557.00
2022-08-26T10:38:23.850Z,6660.00
2022-08-26T10:39:24.759Z,10288.00
2022-08-26T10:40:23.829Z,6868.00
2022-08-26T10:41:23.772Z,6972.00
2022-08-26T10:42:23.761Z,6908.00
2022-08-26T10:43:23.756Z,6867.00
2022-08-26T10:44:23.740Z,6760.00
2022-08-26T10:45:23.726Z,6772.00
2022-08-26T10:46:23.778Z,6733.00
2022-08-26T10:47:23.694Z,6686.00
2022-08-26T10:48:23.684Z,6599.00
2022-08-26T10:49:23.709Z,6417.00
2022-08-26T10:50:23.654Z,6342.00
2022-08-26T10:51:23.664Z,6178.00
2022-08-26T10:52:23.626Z,6227.00
2022-08-26T10:53:25.104Z,6440.00
2022-08-26T10:54:23.686Z,6688.00
2022-08-26T10:55:23.597Z,6955.00
2022-08-26T10:56:23.588Z,7165.00
2022-08-26T10:57:23.579Z,7322.00
2022-08-26T10:58:26.638Z,7490.00
2022-08-26T10:59:24.497Z,7662.00
2022-08-26T11:00:23.528Z,7750.00
2022-08-26T11:01:24.585Z,7790.00
2022-08-26T11:02:25.197Z,7707.00
2022-08-26T11:03:23.501Z,7530.00
2022-08-26T11:04:23.534Z,7612.00
2022-08-26T11:05:23.487Z,7624.00
2022-08-26T11:06:23.471Z,7834.00
2022-08-26T11:07:23.443Z,7431.00
2022-08-26T11:08:23.433Z,7440.00
2022-08-26T11:09:25.784Z,10557.00
2022-08-26T11:10:24.415Z,9993.00
2022-08-26T11:11:23.385Z,9396.00
2022-08-26T11:12:23.366Z,8221.00
2022-08-26T11:13:23.362Z,9380.00
2022-08-26T11:14:26.668Z,9259.00
2022-08-26T11:15:24.976Z,8860.00
2022-08-26T11:16:23.353Z,8375.00
2022-08-26T11:17:23.338Z,7980.00
2022-08-26T11:18:23.318Z,7426.00
2022-08-26T11:19:24.576Z,6898.00
2022-08-26T11:20:23.809Z,5989.00
2022-08-26T11:21:23.280Z,5016.00
2022-08-26T11:22:24.240Z,4225.00
2022-08-26T11:23:23.243Z,3619.00
2022-08-26T11:24:23.220Z,3238.00
2022-08-26T11:25:27.743Z,2952.00
2022-08-26T11:26:37.588Z,2716.00
2022-08-26T11:27:24.423Z,2471.00
2022-08-26T11:28:23.164Z,2246.00
2022-08-26T11:29:23.154Z,1886.00
2022-08-26T11:30:24.097Z,2099.00
2022-08-26T11:31:23.208Z,1946.00
2022-08-26T11:32:23.115Z,1872.00
2022-08-26T11:33:23.115Z,1841.00
2022-08-26T11:34:23.116Z,1852.00
2022-08-26T11:35:23.074Z,1922.00
2022-08-26T11:36:23.065Z,1916.00
2022-08-26T11:37:23.061Z,1988.00
2022-08-26T11:38:23.037Z,2010.00
2022-08-26T11:39:23.044Z,2004.00
2022-08-26T11:40:25.013Z,2058.00
2022-08-26T11:41:23.010Z,2179.00
2022-08-26T11:42:22.980Z,2233.00
2022-08-26T11:43:22.981Z,2196.00
2022-08-26T11:44:22.982Z,2139.00
2022-08-26T11:45:23.874Z,2134.00
2022-08-26T11:46:22.931Z,2140.00
2022-08-26T11:47:22.943Z,2624.00
2022-08-26T11:48:22.912Z,2842.00
2022-08-26T11:49:22.906Z,3017.00
2022-08-26T11:50:22.883Z,2978.00
2022-08-26T11:51:22.876Z,2887.00
2022-08-26T11:52:22.922Z,2729.00
2022-08-26T11:53:22.921Z,2628.00
2022-08-26T11:54:35.287Z,2564.00
2022-08-26T11:55:24.240Z,2522.00
2022-08-26T11:56:22.807Z,2491.00
2022-08-26T11:57:22.836Z,2513.00
2022-08-26T11:58:23.017Z,2556.00
2022-08-26T11:59:22.813Z,2587.00
2022-08-26T12:00:23.642Z,2594.00
2022-08-26T12:01:22.739Z,2615.00
2022-08-26T12:02:22.732Z,2650.00
2022-08-26T12:03:23.022Z,2694.00
2022-08-26T12:04:22.825Z,2762.00
2022-08-26T12:05:22.682Z,2779.00
2022-08-26T12:06:23.647Z,2789.00
2022-08-26T12:07:24.190Z,2784.00
2022-08-26T12:08:22.641Z,2801.00
2022-08-26T12:09:22.656Z,2821.00
2022-08-26T12:10:22.608Z,2848.00
2022-08-26T12:11:22.603Z,2887.00
2022-08-26T12:12:22.593Z,2954.00
2022-08-26T12:13:22.824Z,3030.00
2022-08-26T12:14:22.586Z,3071.00
2022-08-26T12:15:22.557Z,3055.00
2022-08-26T12:16:23.518Z,3022.00
2022-08-26T12:17:22.694Z,2989.00
2022-08-26T12:18:29.195Z,2970.00
2022-08-26T12:19:23.523Z,2930.00
2022-08-26T12:20:22.487Z,2919.00
2022-08-26T12:21:22.493Z,2910.00
2022-08-26T12:22:22.464Z,2934.00
2022-08-26T12:23:22.459Z,2979.00
2022-08-26T12:24:22.439Z,3018.00
2022-08-26T12:25:22.427Z,3066.00
2022-08-26T12:26:22.409Z,3099.00
2022-08-26T12:27:22.389Z,3139.00
2022-08-26T12:28:23.212Z,3163.00
2022-08-26T12:29:27.237Z,3209.00